sensor_id;sensor_type;location;lat;lon;timestamp;P1;durP1;ratioP1;P2;durP2;ratioP2
26920;SDS011;14483;47.844;9.660;2023-06-05T00:01:48;4.60;;;3.10;;
26920;SDS011;14483;47.844;9.660;2023-06-05T00:04:16;7.97;;;3.45;;
26920;SDS011;14483;47.844;9.660;2023-06-05T00:06:43;4.57;;;2.90;;
26920;SDS011;14483;47.844;9.660;2023-06-05T00:09:10;6.05;;;2.80;;
26920;SDS011;14483;47.844;9.660;2023-06-05T00:11:38;8.60;;;3.60;;
26920;SDS011;14483;47.844;9.660;2023-06-05T00:14:04;7.80;;;3.63;;
26920;SDS011;14483;47.844;9.660;2023-06-05T00:16:33;4.82;;;3.00;;
26920;SDS011;14483;47.844;9.660;2023-06-05T00:18:59;4.97;;;2.85;;
26920;SDS011;14483;47.844;9.660;2023-06-05T00:21:26;5.45;;;3.38;;
26920;SDS011;14483;47.844;9.660;2023-06-05T00:23:54;6.60;;;3.40;;
26920;SDS011;14483;47.844;9.660;2023-06-05T00:26:21;5.97;;;3.17;;
26920;SDS011;14483;47.844;9.660;2023-06-05T00:28:47;5.47;;;3.00;;
26920;SDS011;14483;47.844;9.660;2023-06-05T00:31:14;6.35;;;2.65;;
26920;SDS011;14483;47.844;9.660;2023-06-05T00:33:42;6.68;;;3.80;;
26920;SDS011;14483;47.844;9.660;2023-06-05T00:36:08;5.00;;;3.10;;
26920;SDS011;14483;47.844;9.660;2023-06-05T00:38:36;5.30;;;3.22;;
26920;SDS011;14483;47.844;9.660;2023-06-05T00:41:04;7.35;;;3.03;;
26920;SDS011;14483;47.844;9.660;2023-06-05T00:43:30;6.93;;;3.17;;
26920;SDS011;14483;47.844;9.660;2023-06-05T00:45:58;6.00;;;3.15;;
26920;SDS011;14483;47.844;9.660;2023-06-05T00:48:27;4.10;;;2.80;;
26920;SDS011;14483;47.844;9.660;2023-06-05T00:50:54;4.82;;;2.92;;
26920;SDS011;14483;47.844;9.660;2023-06-05T00:53:22;5.40;;;3.50;;
26920;SDS011;14483;47.844;9.660;2023-06-05T00:55:49;7.05;;;3.28;;
26920;SDS011;14483;47.844;9.660;2023-06-05T00:58:17;4.97;;;2.88;;
26920;SDS011;14483;47.844;9.660;2023-06-05T01:00:44;6.63;;;3.47;;
26920;SDS011;14483;47.844;9.660;2023-06-05T01:03:14;5.80;;;3.35;;
26920;SDS011;14483;47.844;9.660;2023-06-05T01:05:42;5.50;;;3.58;;
26920;SDS011;14483;47.844;9.660;2023-06-05T01:08:08;4.93;;;2.53;;
26920;SDS011;14483;47.844;9.660;2023-06-05T01:10:37;5.70;;;3.33;;
26920;SDS011;14483;47.844;9.660;2023-06-05T01:13:05;6.45;;;3.53;;
26920;SDS011;14483;47.844;9.660;2023-06-05T01:15:33;6.70;;;2.92;;
26920;SDS011;14483;47.844;9.660;2023-06-05T01:18:01;7.47;;;3.67;;
26920;SDS011;14483;47.844;9.660;2023-06-05T01:20:37;6.20;;;3.40;;
26920;SDS011;14483;47.844;9.660;2023-06-05T01:23:05;5.90;;;3.72;;
26920;SDS011;14483;47.844;9.660;2023-06-05T01:25:32;6.60;;;3.55;;
26920;SDS011;14483;47.844;9.660;2023-06-05T01:28:12;5.82;;;3.25;;
26920;SDS011;14483;47.844;9.660;2023-06-05T01:30:40;7.88;;;3.53;;
26920;SDS011;14483;47.844;9.660;2023-06-05T01:33:13;7.93;;;3.55;;
26920;SDS011;14483;47.844;9.660;2023-06-05T01:35:42;4.85;;;3.10;;
26920;SDS011;14483;47.844;9.660;2023-06-05T01:38:11;5.40;;;2.97;;
26920;SDS011;14483;47.844;9.660;2023-06-05T01:40:38;5.22;;;3.33;;
26920;SDS011;14483;47.844;9.660;2023-06-05T01:43:05;5.78;;;3.50;;
26920;SDS011;14483;47.844;9.660;2023-06-05T01:45:33;7.40;;;3.30;;
26920;SDS011;14483;47.844;9.660;2023-06-05T01:48:02;5.35;;;2.88;;
26920;SDS011;14483;47.844;9.660;2023-06-05T01:50:32;6.53;;;3.65;;
26920;SDS011;14483;47.844;9.660;2023-06-05T01:52:59;5.88;;;3.60;;
26920;SDS011;14483;47.844;9.660;2023-06-05T01:55:27;6.38;;;3.67;;
26920;SDS011;14483;47.844;9.660;2023-06-05T01:57:54;6.30;;;3.53;;
26920;SDS011;14483;47.844;9.660;2023-06-05T02:00:20;7.05;;;3.85;;
26920;SDS011;14483;47.844;9.660;2023-06-05T02:02:47;6.18;;;3.85;;
26920;SDS011;14483;47.844;9.660;2023-06-05T02:05:15;5.75;;;3.38;;
26920;SDS011;14483;47.844;9.660;2023-06-05T02:07:44;6.70;;;3.45;;
26920;SDS011;14483;47.844;9.660;2023-06-05T02:10:14;8.68;;;3.67;;
26920;SDS011;14483;47.844;9.660;2023-06-05T02:12:42;5.38;;;3.30;;
26920;SDS011;14483;47.844;9.660;2023-06-05T02:15:09;8.00;;;4.13;;
26920;SDS011;14483;47.844;9.660;2023-06-05T02:17:38;10.15;;;3.50;;
26920;SDS011;14483;47.844;9.660;2023-06-05T02:20:05;7.90;;;3.88;;
26920;SDS011;14483;47.844;9.660;2023-06-05T02:22:31;6.28;;;3.33;;
26920;SDS011;14483;47.844;9.660;2023-06-05T02:24:58;8.88;;;3.83;;
26920;SDS011;14483;47.844;9.660;2023-06-05T02:27:24;6.75;;;3.70;;
26920;SDS011;14483;47.844;9.660;2023-06-05T02:29:53;11.15;;;3.63;;
26920;SDS011;14483;47.844;9.660;2023-06-05T02:32:20;6.63;;;3.50;;
26920;SDS011;14483;47.844;9.660;2023-06-05T02:34:51;6.10;;;3.70;;
26920;SDS011;14483;47.844;9.660;2023-06-05T02:37:17;6.47;;;3.28;;
26920;SDS011;14483;47.844;9.660;2023-06-05T02:39:47;8.77;;;3.92;;
26920;SDS011;14483;47.844;9.660;2023-06-05T02:42:14;6.03;;;3.47;;
26920;SDS011;14483;47.844;9.660;2023-06-05T02:44:41;5.35;;;3.13;;
26920;SDS011;14483;47.844;9.660;2023-06-05T02:47:09;5.10;;;3.33;;
26920;SDS011;14483;47.844;9.660;2023-06-05T02:49:36;5.97;;;3.70;;
26920;SDS011;14483;47.844;9.660;2023-06-05T02:52:02;6.30;;;3.60;;
26920;SDS011;14483;47.844;9.660;2023-06-05T02:54:29;8.63;;;3.45;;
26920;SDS011;14483;47.844;9.660;2023-06-05T02:56:55;9.02;;;4.22;;
26920;SDS011;14483;47.844;9.660;2023-06-05T02:59:25;6.53;;;3.55;;
26920;SDS011;14483;47.844;9.660;2023-06-05T03:01:52;7.07;;;3.67;;
26920;SDS011;14483;47.844;9.660;2023-06-05T03:04:20;5.30;;;3.42;;
26920;SDS011;14483;47.844;9.660;2023-06-05T03:06:48;6.65;;;3.10;;
26920;SDS011;14483;47.844;9.660;2023-06-05T03:09:15;6.10;;;3.63;;
26920;SDS011;14483;47.844;9.660;2023-06-05T03:11:42;6.45;;;3.40;;
26920;SDS011;14483;47.844;9.660;2023-06-05T03:14:08;7.70;;;3.80;;
26920;SDS011;14483;47.844;9.660;2023-06-05T03:16:34;5.78;;;3.40;;
26920;SDS011;14483;47.844;9.660;2023-06-05T03:19:06;5.97;;;3.70;;
26920;SDS011;14483;47.844;9.660;2023-06-05T03:21:34;7.40;;;3.72;;
26920;SDS011;14483;47.844;9.660;2023-06-05T03:24:00;7.65;;;3.50;;
26920;SDS011;14483;47.844;9.660;2023-06-05T03:26:27;6.85;;;3.75;;
26920;SDS011;14483;47.844;9.660;2023-06-05T03:28:54;5.72;;;3.25;;
26920;SDS011;14483;47.844;9.660;2023-06-05T03:31:20;6.43;;;3.83;;
26920;SDS011;14483;47.844;9.660;2023-06-05T03:33:46;7.43;;;3.65;;
26920;SDS011;14483;47.844;9.660;2023-06-05T03:36:13;5.57;;;3.15;;
26920;SDS011;14483;47.844;9.660;2023-06-05T03:38:43;5.25;;;3.22;;
26920;SDS011;14483;47.844;9.660;2023-06-05T03:41:10;6.05;;;3.42;;
26920;SDS011;14483;47.844;9.660;2023-06-05T03:43:36;5.78;;;3.30;;
26920;SDS011;14483;47.844;9.660;2023-06-05T03:46:02;6.65;;;3.58;;
26920;SDS011;14483;47.844;9.660;2023-06-05T03:48:29;8.27;;;3.85;;
26920;SDS011;14483;47.844;9.660;2023-06-05T03:50:55;5.88;;;3.63;;
26920;SDS011;14483;47.844;9.660;2023-06-05T03:53:23;8.18;;;3.88;;
26920;SDS011;14483;47.844;9.660;2023-06-05T03:55:50;7.57;;;3.25;;
26920;SDS011;14483;47.844;9.660;2023-06-05T03:58:18;7.38;;;3.80;;
26920;SDS011;14483;47.844;9.660;2023-06-05T04:00:45;5.78;;;3.88;;
26920;SDS011;14483;47.844;9.660;2023-06-05T04:03:11;8.07;;;4.10;;
26920;SDS011;14483;47.844;9.660;2023-06-05T04:05:38;9.75;;;4.25;;
26920;SDS011;14483;47.844;9.660;2023-06-05T04:08:05;6.22;;;3.58;;
26920;SDS011;14483;47.844;9.660;2023-06-05T04:10:31;12.48;;;3.97;;
26920;SDS011;14483;47.844;9.660;2023-06-05T04:12:59;5.40;;;3.75;;
26920;SDS011;14483;47.844;9.660;2023-06-05T04:15:26;7.50;;;3.85;;
26920;SDS011;14483;47.844;9.660;2023-06-05T04:17:52;7.28;;;3.83;;
26920;SDS011;14483;47.844;9.660;2023-06-05T04:20:18;7.40;;;4.20;;
26920;SDS011;14483;47.844;9.660;2023-06-05T04:22:45;7.35;;;3.47;;
26920;SDS011;14483;47.844;9.660;2023-06-05T04:25:12;9.75;;;4.22;;
26920;SDS011;14483;47.844;9.660;2023-06-05T04:27:38;7.70;;;4.00;;
26920;SDS011;14483;47.844;9.660;2023-06-05T04:30:08;7.32;;;4.07;;
26920;SDS011;14483;47.844;9.660;2023-06-05T04:32:35;6.50;;;4.47;;
26920;SDS011;14483;47.844;9.660;2023-06-05T04:35:05;6.30;;;4.32;;
26920;SDS011;14483;47.844;9.660;2023-06-05T04:37:31;7.53;;;3.88;;
26920;SDS011;14483;47.844;9.660;2023-06-05T04:39:58;7.82;;;4.30;;
26920;SDS011;14483;47.844;9.660;2023-06-05T04:42:24;8.05;;;3.92;;
26920;SDS011;14483;47.844;9.660;2023-06-05T04:44:53;9.43;;;4.50;;
26920;SDS011;14483;47.844;9.660;2023-06-05T04:47:21;7.28;;;4.10;;
26920;SDS011;14483;47.844;9.660;2023-06-05T04:49:47;9.55;;;5.70;;
26920;SDS011;14483;47.844;9.660;2023-06-05T04:52:16;8.48;;;4.50;;
26920;SDS011;14483;47.844;9.660;2023-06-05T04:54:43;9.07;;;4.43;;
26920;SDS011;14483;47.844;9.660;2023-06-05T04:57:09;8.52;;;4.90;;
26920;SDS011;14483;47.844;9.660;2023-06-05T04:59:36;6.65;;;4.50;;
26920;SDS011;14483;47.844;9.660;2023-06-05T05:02:03;11.80;;;4.50;;
26920;SDS011;14483;47.844;9.660;2023-06-05T05:04:31;9.52;;;5.00;;
26920;SDS011;14483;47.844;9.660;2023-06-05T05:06:57;8.05;;;5.07;;
26920;SDS011;14483;47.844;9.660;2023-06-05T05:09:26;7.70;;;4.65;;
26920;SDS011;14483;47.844;9.660;2023-06-05T05:11:52;7.95;;;5.35;;
26920;SDS011;14483;47.844;9.660;2023-06-05T05:14:19;9.73;;;4.65;;
26920;SDS011;14483;47.844;9.660;2023-06-05T05:16:45;9.65;;;5.35;;
26920;SDS011;14483;47.844;9.660;2023-06-05T05:19:12;7.78;;;4.88;;
26920;SDS011;14483;47.844;9.660;2023-06-05T05:21:40;8.52;;;4.80;;
26920;SDS011;14483;47.844;9.660;2023-06-05T05:24:07;10.05;;;4.82;;
26920;SDS011;14483;47.844;9.660;2023-06-05T05:26:33;7.72;;;4.43;;
26920;SDS011;14483;47.844;9.660;2023-06-05T05:28:59;7.55;;;4.03;;
26920;SDS011;14483;47.844;9.660;2023-06-05T05:31:26;11.10;;;5.13;;
26920;SDS011;14483;47.844;9.660;2023-06-05T05:33:54;7.32;;;3.75;;
26920;SDS011;14483;47.844;9.660;2023-06-05T05:36:21;9.50;;;4.32;;
26920;SDS011;14483;47.844;9.660;2023-06-05T05:38:48;9.57;;;4.50;;
26920;SDS011;14483;47.844;9.660;2023-06-05T05:41:15;5.70;;;4.13;;
26920;SDS011;14483;47.844;9.660;2023-06-05T05:43:42;7.90;;;4.38;;
26920;SDS011;14483;47.844;9.660;2023-06-05T05:46:08;5.85;;;3.67;;
26920;SDS011;14483;47.844;9.660;2023-06-05T05:48:35;7.30;;;4.30;;
26920;SDS011;14483;47.844;9.660;2023-06-05T05:51:01;5.85;;;3.70;;
26920;SDS011;14483;47.844;9.660;2023-06-05T05:53:27;7.85;;;4.20;;
26920;SDS011;14483;47.844;9.660;2023-06-05T05:55:55;7.07;;;4.10;;
26920;SDS011;14483;47.844;9.660;2023-06-05T05:58:21;7.00;;;4.18;;
26920;SDS011;14483;47.844;9.660;2023-06-05T06:00:48;8.10;;;4.40;;
26920;SDS011;14483;47.844;9.660;2023-06-05T06:03:15;7.63;;;3.45;;
26920;SDS011;14483;47.844;9.660;2023-06-05T06:05:42;7.40;;;4.00;;
26920;SDS011;14483;47.844;9.660;2023-06-05T06:08:09;7.93;;;4.07;;
26920;SDS011;14483;47.844;9.660;2023-06-05T06:10:36;6.82;;;3.67;;
26920;SDS011;14483;47.844;9.660;2023-06-05T06:13:04;8.38;;;3.13;;
26920;SDS011;14483;47.844;9.660;2023-06-05T06:15:31;7.82;;;4.20;;
26920;SDS011;14483;47.844;9.660;2023-06-05T06:17:57;7.78;;;4.25;;
26920;SDS011;14483;47.844;9.660;2023-06-05T06:20:25;6.85;;;3.83;;
26920;SDS011;14483;47.844;9.660;2023-06-05T06:22:52;6.40;;;3.72;;
26920;SDS011;14483;47.844;9.660;2023-06-05T06:25:19;6.50;;;4.00;;
26920;SDS011;14483;47.844;9.660;2023-06-05T06:27:46;5.90;;;3.75;;
26920;SDS011;14483;47.844;9.660;2023-06-05T06:30:15;7.93;;;3.80;;
26920;SDS011;14483;47.844;9.660;2023-06-05T06:32:41;6.90;;;3.75;;
26920;SDS011;14483;47.844;9.660;2023-06-05T06:35:07;6.57;;;4.13;;
26920;SDS011;14483;47.844;9.660;2023-06-05T06:37:34;8.50;;;4.10;;
26920;SDS011;14483;47.844;9.660;2023-06-05T06:40:02;13.35;;;4.00;;
26920;SDS011;14483;47.844;9.660;2023-06-05T06:42:30;8.70;;;4.10;;
26920;SDS011;14483;47.844;9.660;2023-06-05T06:44:56;8.18;;;3.80;;
26920;SDS011;14483;47.844;9.660;2023-06-05T06:47:24;8.00;;;4.10;;
26920;SDS011;14483;47.844;9.660;2023-06-05T06:49:51;8.88;;;3.97;;
26920;SDS011;14483;47.844;9.660;2023-06-05T06:52:18;7.10;;;3.30;;
26920;SDS011;14483;47.844;9.660;2023-06-05T06:54:45;6.07;;;4.25;;
26920;SDS011;14483;47.844;9.660;2023-06-05T06:57:11;7.07;;;4.07;;
26920;SDS011;14483;47.844;9.660;2023-06-05T06:59:38;12.60;;;3.72;;
26920;SDS011;14483;47.844;9.660;2023-06-05T07:02:09;10.02;;;3.40;;
26920;SDS011;14483;47.844;9.660;2023-06-05T07:04:37;9.50;;;4.13;;
26920;SDS011;14483;47.844;9.660;2023-06-05T07:07:07;7.25;;;3.80;;
26920;SDS011;14483;47.844;9.660;2023-06-05T07:09:33;6.80;;;3.60;;
26920;SDS011;14483;47.844;9.660;2023-06-05T07:12:00;9.23;;;4.38;;
26920;SDS011;14483;47.844;9.660;2023-06-05T07:14:30;7.95;;;3.88;;
26920;SDS011;14483;47.844;9.660;2023-06-05T07:16:56;8.50;;;3.90;;
26920;SDS011;14483;47.844;9.660;2023-06-05T07:19:25;6.90;;;4.32;;
26920;SDS011;14483;47.844;9.660;2023-06-05T07:21:52;10.38;;;4.82;;
26920;SDS011;14483;47.844;9.660;2023-06-05T07:24:19;8.13;;;5.05;;
26920;SDS011;14483;47.844;9.660;2023-06-05T07:26:45;24.63;;;6.68;;
26920;SDS011;14483;47.844;9.660;2023-06-05T07:29:12;7.05;;;3.88;;
26920;SDS011;14483;47.844;9.660;2023-06-05T07:31:39;6.63;;;4.72;;
26920;SDS011;14483;47.844;9.660;2023-06-05T07:34:05;8.15;;;4.65;;
26920;SDS011;14483;47.844;9.660;2023-06-05T07:36:32;8.57;;;5.07;;
26920;SDS011;14483;47.844;9.660;2023-06-05T07:39:00;9.65;;;5.03;;
26920;SDS011;14483;47.844;9.660;2023-06-05T07:41:26;7.88;;;5.80;;
26920;SDS011;14483;47.844;9.660;2023-06-05T07:43:53;7.25;;;4.82;;
26920;SDS011;14483;47.844;9.660;2023-06-05T07:46:19;9.98;;;5.45;;
26920;SDS011;14483;47.844;9.660;2023-06-05T07:48:45;10.82;;;5.20;;
26920;SDS011;14483;47.844;9.660;2023-06-05T07:51:12;8.68;;;5.03;;
26920;SDS011;14483;47.844;9.660;2023-06-05T07:53:38;7.38;;;4.80;;
26920;SDS011;14483;47.844;9.660;2023-06-05T07:56:06;11.85;;;6.47;;
26920;SDS011;14483;47.844;9.660;2023-06-05T07:58:32;8.60;;;6.07;;
26920;SDS011;14483;47.844;9.660;2023-06-05T08:01:00;11.55;;;5.72;;
26920;SDS011;14483;47.844;9.660;2023-06-05T08:03:32;11.80;;;6.50;;
26920;SDS011;14483;47.844;9.660;2023-06-05T08:05:58;10.27;;;5.03;;
26920;SDS011;14483;47.844;9.660;2023-06-05T08:08:24;8.23;;;5.20;;
26920;SDS011;14483;47.844;9.660;2023-06-05T08:10:51;10.82;;;5.55;;
26920;SDS011;14483;47.844;9.660;2023-06-05T08:13:19;8.35;;;5.93;;
26920;SDS011;14483;47.844;9.660;2023-06-05T08:15:45;9.40;;;6.97;;
26920;SDS011;14483;47.844;9.660;2023-06-05T08:18:12;9.43;;;5.38;;
26920;SDS011;14483;47.844;9.660;2023-06-05T08:20:38;8.70;;;5.93;;
26920;SDS011;14483;47.844;9.660;2023-06-05T08:23:05;8.13;;;5.53;;
26920;SDS011;14483;47.844;9.660;2023-06-05T08:25:31;9.60;;;5.85;;
26920;SDS011;14483;47.844;9.660;2023-06-05T08:27:58;7.90;;;6.00;;
26920;SDS011;14483;47.844;9.660;2023-06-05T08:30:25;8.73;;;5.60;;
26920;SDS011;14483;47.844;9.660;2023-06-05T08:32:52;9.98;;;6.07;;
26920;SDS011;14483;47.844;9.660;2023-06-05T08:35:18;7.65;;;5.90;;
26920;SDS011;14483;47.844;9.660;2023-06-05T08:37:44;8.65;;;5.53;;
26920;SDS011;14483;47.844;9.660;2023-06-05T08:40:11;11.50;;;5.65;;
26920;SDS011;14483;47.844;9.660;2023-06-05T08:42:37;7.68;;;5.70;;
26920;SDS011;14483;47.844;9.660;2023-06-05T08:45:04;8.75;;;6.47;;
26920;SDS011;14483;47.844;9.660;2023-06-05T08:47:32;10.13;;;5.95;;
26920;SDS011;14483;47.844;9.660;2023-06-05T08:50:02;9.75;;;6.43;;
26920;SDS011;14483;47.844;9.660;2023-06-05T08:52:29;12.07;;;5.72;;
26920;SDS011;14483;47.844;9.660;2023-06-05T08:54:58;6.00;;;4.82;;
26920;SDS011;14483;47.844;9.660;2023-06-05T08:57:25;9.30;;;5.85;;
26920;SDS011;14483;47.844;9.660;2023-06-05T08:59:53;9.43;;;5.65;;
26920;SDS011;14483;47.844;9.660;2023-06-05T09:02:19;7.03;;;5.10;;
26920;SDS011;14483;47.844;9.660;2023-06-05T09:04:47;11.00;;;5.80;;
26920;SDS011;14483;47.844;9.660;2023-06-05T09:07:14;8.10;;;5.78;;
26920;SDS011;14483;47.844;9.660;2023-06-05T09:09:42;7.00;;;4.40;;
26920;SDS011;14483;47.844;9.660;2023-06-05T09:12:08;7.90;;;4.75;;
26920;SDS011;14483;47.844;9.660;2023-06-05T09:14:35;8.18;;;4.55;;
26920;SDS011;14483;47.844;9.660;2023-06-05T09:17:02;8.13;;;5.00;;
26920;SDS011;14483;47.844;9.660;2023-06-05T09:19:35;11.38;;;5.20;;
26920;SDS011;14483;47.844;9.660;2023-06-05T09:22:02;9.00;;;4.05;;
26920;SDS011;14483;47.844;9.660;2023-06-05T09:24:30;10.20;;;4.47;;
26920;SDS011;14483;47.844;9.660;2023-06-05T09:26:57;5.88;;;4.47;;
26920;SDS011;14483;47.844;9.660;2023-06-05T09:29:24;7.15;;;4.15;;
26920;SDS011;14483;47.844;9.660;2023-06-05T09:31:51;6.28;;;5.03;;
26920;SDS011;14483;47.844;9.660;2023-06-05T09:34:24;6.55;;;4.43;;
26920;SDS011;14483;47.844;9.660;2023-06-05T09:36:51;9.20;;;5.32;;
26920;SDS011;14483;47.844;9.660;2023-06-05T09:39:21;6.40;;;4.63;;
26920;SDS011;14483;47.844;9.660;2023-06-05T09:41:49;8.35;;;5.05;;
26920;SDS011;14483;47.844;9.660;2023-06-05T09:44:17;7.60;;;5.10;;
26920;SDS011;14483;47.844;9.660;2023-06-05T09:46:50;7.75;;;4.78;;
26920;SDS011;14483;47.844;9.660;2023-06-05T09:49:17;6.80;;;4.68;;
26920;SDS011;14483;47.844;9.660;2023-06-05T09:51:44;8.68;;;5.10;;
26920;SDS011;14483;47.844;9.660;2023-06-05T09:54:11;6.38;;;4.72;;
26920;SDS011;14483;47.844;9.660;2023-06-05T09:56:39;7.53;;;5.05;;
26920;SDS011;14483;47.844;9.660;2023-06-05T09:59:06;9.18;;;4.65;;
26920;SDS011;14483;47.844;9.660;2023-06-05T10:01:34;6.25;;;4.60;;
26920;SDS011;14483;47.844;9.660;2023-06-05T10:04:02;5.90;;;3.78;;
26920;SDS011;14483;47.844;9.660;2023-06-05T10:06:31;7.05;;;4.20;;
26920;SDS011;14483;47.844;9.660;2023-06-05T10:08:58;7.13;;;3.90;;
26920;SDS011;14483;47.844;9.660;2023-06-05T10:11:25;6.57;;;4.22;;
26920;SDS011;14483;47.844;9.660;2023-06-05T10:13:54;9.32;;;4.22;;
26920;SDS011;14483;47.844;9.660;2023-06-05T10:16:20;5.85;;;4.40;;
26920;SDS011;14483;47.844;9.660;2023-06-05T10:18:47;9.23;;;4.40;;
26920;SDS011;14483;47.844;9.660;2023-06-05T10:21:14;9.05;;;4.50;;
26920;SDS011;14483;47.844;9.660;2023-06-05T10:23:42;9.70;;;4.70;;
26920;SDS011;14483;47.844;9.660;2023-06-05T10:26:14;7.47;;;5.05;;
26920;SDS011;14483;47.844;9.660;2023-06-05T10:28:46;8.85;;;4.90;;
26920;SDS011;14483;47.844;9.660;2023-06-05T10:31:21;7.30;;;4.20;;
26920;SDS011;14483;47.844;9.660;2023-06-05T10:34:13;5.95;;;4.35;;
26920;SDS011;14483;47.844;9.660;2023-06-05T10:39:22;4.68;;;3.80;;
26920;SDS011;14483;47.844;9.660;2023-06-05T10:41:50;7.03;;;5.47;;
26920;SDS011;14483;47.844;9.660;2023-06-05T10:44:17;7.90;;;4.40;;
26920;SDS011;14483;47.844;9.660;2023-06-05T10:46:45;9.38;;;3.95;;
26920;SDS011;14483;47.844;9.660;2023-06-05T10:49:12;6.88;;;4.60;;
26920;SDS011;14483;47.844;9.660;2023-06-05T10:51:41;8.65;;;4.20;;
26920;SDS011;14483;47.844;9.660;2023-06-05T10:54:08;9.55;;;4.63;;
26920;SDS011;14483;47.844;9.660;2023-06-05T10:59:21;7.55;;;4.13;;
26920;SDS011;14483;47.844;9.660;2023-06-05T11:04:39;10.23;;;4.40;;
26920;SDS011;14483;47.844;9.660;2023-06-05T11:07:26;5.28;;;3.90;;
26920;SDS011;14483;47.844;9.660;2023-06-05T11:10:09;6.60;;;4.40;;
26920;SDS011;14483;47.844;9.660;2023-06-05T11:15:37;6.78;;;3.65;;
26920;SDS011;14483;47.844;9.660;2023-06-05T11:20:49;6.07;;;3.53;;
26920;SDS011;14483;47.844;9.660;2023-06-05T11:23:16;4.38;;;3.53;;
26920;SDS011;14483;47.844;9.660;2023-06-05T11:25:42;6.13;;;3.50;;
26920;SDS011;14483;47.844;9.660;2023-06-05T11:28:09;6.63;;;3.65;;
26920;SDS011;14483;47.844;9.660;2023-06-05T11:30:38;9.48;;;4.05;;
26920;SDS011;14483;47.844;9.660;2023-06-05T11:33:05;5.72;;;3.92;;
26920;SDS011;14483;47.844;9.660;2023-06-05T11:35:33;9.93;;;3.22;;
26920;SDS011;14483;47.844;9.660;2023-06-05T11:38:07;5.35;;;3.80;;
26920;SDS011;14483;47.844;9.660;2023-06-05T11:40:34;6.20;;;4.43;;
26920;SDS011;14483;47.844;9.660;2023-06-05T11:43:04;5.90;;;4.10;;
26920;SDS011;14483;47.844;9.660;2023-06-05T11:45:31;4.65;;;3.35;;
26920;SDS011;14483;47.844;9.660;2023-06-05T11:48:03;7.32;;;4.05;;
26920;SDS011;14483;47.844;9.660;2023-06-05T11:50:29;8.48;;;3.67;;
26920;SDS011;14483;47.844;9.660;2023-06-05T11:53:03;9.40;;;4.15;;
26920;SDS011;14483;47.844;9.660;2023-06-05T11:55:31;10.98;;;3.95;;
26920;SDS011;14483;47.844;9.660;2023-06-05T11:58:08;5.90;;;3.65;;
26920;SDS011;14483;47.844;9.660;2023-06-05T12:00:35;5.90;;;4.13;;
26920;SDS011;14483;47.844;9.660;2023-06-05T12:03:01;5.47;;;3.70;;
26920;SDS011;14483;47.844;9.660;2023-06-05T12:05:28;8.00;;;4.15;;
26920;SDS011;14483;47.844;9.660;2023-06-05T12:07:55;8.05;;;3.60;;
26920;SDS011;14483;47.844;9.660;2023-06-05T12:10:32;5.88;;;4.00;;
26920;SDS011;14483;47.844;9.660;2023-06-05T12:13:00;8.40;;;3.85;;
26920;SDS011;14483;47.844;9.660;2023-06-05T12:15:26;6.90;;;4.18;;
26920;SDS011;14483;47.844;9.660;2023-06-05T12:17:53;7.30;;;4.10;;
26920;SDS011;14483;47.844;9.660;2023-06-05T12:20:19;8.27;;;3.67;;
26920;SDS011;14483;47.844;9.660;2023-06-05T12:22:46;8.88;;;4.05;;
26920;SDS011;14483;47.844;9.660;2023-06-05T12:25:15;5.75;;;3.50;;
26920;SDS011;14483;47.844;9.660;2023-06-05T12:27:42;9.43;;;4.18;;
26920;SDS011;14483;47.844;9.660;2023-06-05T12:30:11;6.45;;;3.45;;
26920;SDS011;14483;47.844;9.660;2023-06-05T12:32:37;7.38;;;3.92;;
26920;SDS011;14483;47.844;9.660;2023-06-05T12:35:05;5.88;;;3.83;;
26920;SDS011;14483;47.844;9.660;2023-06-05T12:37:33;5.68;;;3.72;;
26920;SDS011;14483;47.844;9.660;2023-06-05T12:40:02;4.88;;;3.85;;
26920;SDS011;14483;47.844;9.660;2023-06-05T12:42:34;9.43;;;4.25;;
26920;SDS011;14483;47.844;9.660;2023-06-05T12:45:01;5.28;;;3.92;;
26920;SDS011;14483;47.844;9.660;2023-06-05T12:47:29;12.10;;;4.35;;
26920;SDS011;14483;47.844;9.660;2023-06-05T12:49:55;7.25;;;4.22;;
26920;SDS011;14483;47.844;9.660;2023-06-05T12:52:23;5.65;;;3.67;;
26920;SDS011;14483;47.844;9.660;2023-06-05T12:54:51;7.25;;;3.67;;
26920;SDS011;14483;47.844;9.660;2023-06-05T12:57:17;6.18;;;3.80;;
26920;SDS011;14483;47.844;9.660;2023-06-05T12:59:46;6.47;;;3.50;;
26920;SDS011;14483;47.844;9.660;2023-06-05T13:02:12;7.03;;;4.25;;
26920;SDS011;14483;47.844;9.660;2023-06-05T13:04:40;7.68;;;4.07;;
26920;SDS011;14483;47.844;9.660;2023-06-05T13:07:06;6.20;;;4.55;;
26920;SDS011;14483;47.844;9.660;2023-06-05T13:09:33;6.03;;;3.72;;
26920;SDS011;14483;47.844;9.660;2023-06-05T13:12:00;8.90;;;4.45;;
26920;SDS011;14483;47.844;9.660;2023-06-05T13:14:27;6.68;;;3.78;;
26920;SDS011;14483;47.844;9.660;2023-06-05T13:16:53;6.40;;;4.65;;
26920;SDS011;14483;47.844;9.660;2023-06-05T13:19:20;4.97;;;3.47;;
26920;SDS011;14483;47.844;9.660;2023-06-05T13:21:48;7.35;;;4.13;;
26920;SDS011;14483;47.844;9.660;2023-06-05T13:24:15;6.43;;;3.95;;
26920;SDS011;14483;47.844;9.660;2023-06-05T13:26:41;5.22;;;3.70;;
26920;SDS011;14483;47.844;9.660;2023-06-05T13:29:08;6.47;;;3.78;;
26920;SDS011;14483;47.844;9.660;2023-06-05T13:31:34;6.40;;;3.90;;
26920;SDS011;14483;47.844;9.660;2023-06-05T13:34:01;8.25;;;3.50;;
26920;SDS011;14483;47.844;9.660;2023-06-05T13:36:27;5.50;;;3.88;;
26920;SDS011;14483;47.844;9.660;2023-06-05T13:38:55;5.53;;;3.63;;
26920;SDS011;14483;47.844;9.660;2023-06-05T13:41:21;6.10;;;3.13;;
26920;SDS011;14483;47.844;9.660;2023-06-05T13:43:47;8.40;;;3.80;;
26920;SDS011;14483;47.844;9.660;2023-06-05T13:46:14;6.90;;;3.63;;
26920;SDS011;14483;47.844;9.660;2023-06-05T13:48:40;8.98;;;3.47;;
26920;SDS011;14483;47.844;9.660;2023-06-05T13:51:07;6.40;;;3.53;;
26920;SDS011;14483;47.844;9.660;2023-06-05T13:53:33;6.07;;;3.50;;
26920;SDS011;14483;47.844;9.660;2023-06-05T13:56:01;10.75;;;3.65;;
26920;SDS011;14483;47.844;9.660;2023-06-05T13:58:28;5.78;;;3.80;;
26920;SDS011;14483;47.844;9.660;2023-06-05T14:00:54;5.57;;;3.75;;
26920;SDS011;14483;47.844;9.660;2023-06-05T14:03:21;7.28;;;3.83;;
26920;SDS011;14483;47.844;9.660;2023-06-05T14:05:47;6.35;;;4.07;;
26920;SDS011;14483;47.844;9.660;2023-06-05T14:08:14;6.72;;;3.47;;
26920;SDS011;14483;47.844;9.660;2023-06-05T14:10:41;5.55;;;3.75;;
26920;SDS011;14483;47.844;9.660;2023-06-05T14:13:08;4.75;;;3.60;;
26920;SDS011;14483;47.844;9.660;2023-06-05T14:15:35;7.97;;;4.15;;
26920;SDS011;14483;47.844;9.660;2023-06-05T14:18:02;4.82;;;3.55;;
26920;SDS011;14483;47.844;9.660;2023-06-05T14:20:29;5.95;;;3.72;;
26920;SDS011;14483;47.844;9.660;2023-06-05T14:22:55;5.25;;;3.50;;
26920;SDS011;14483;47.844;9.660;2023-06-05T14:25:22;6.15;;;3.40;;
26920;SDS011;14483;47.844;9.660;2023-06-05T14:27:53;7.53;;;3.53;;
26920;SDS011;14483;47.844;9.660;2023-06-05T14:30:21;9.15;;;3.80;;
26920;SDS011;14483;47.844;9.660;2023-06-05T14:32:47;8.68;;;4.25;;
26920;SDS011;14483;47.844;9.660;2023-06-05T14:35:14;11.05;;;4.75;;
26920;SDS011;14483;47.844;9.660;2023-06-05T14:37:41;6.47;;;3.90;;
26920;SDS011;14483;47.844;9.660;2023-06-05T14:40:08;7.57;;;4.07;;
26920;SDS011;14483;47.844;9.660;2023-06-05T14:42:34;7.38;;;4.00;;
26920;SDS011;14483;47.844;9.660;2023-06-05T14:45:01;9.90;;;3.95;;
26920;SDS011;14483;47.844;9.660;2023-06-05T14:47:29;5.95;;;3.28;;
26920;SDS011;14483;47.844;9.660;2023-06-05T14:49:55;6.65;;;3.45;;
26920;SDS011;14483;47.844;9.660;2023-06-05T14:52:22;5.38;;;3.75;;
26920;SDS011;14483;47.844;9.660;2023-06-05T14:54:48;5.53;;;3.45;;
26920;SDS011;14483;47.844;9.660;2023-06-05T14:57:15;5.72;;;3.92;;
26920;SDS011;14483;47.844;9.660;2023-06-05T14:59:41;6.95;;;3.75;;
26920;SDS011;14483;47.844;9.660;2023-06-05T15:02:07;7.85;;;4.25;;